createdAt,value
2018-05-06T00:00:59.722Z,14.20
2018-05-06T00:03:25.957Z,14.20
2018-05-06T00:05:52.252Z,14.20
2018-05-06T00:08:19.461Z,14.10
2018-05-06T00:10:45.699Z,14.10
2018-05-06T00:13:11.948Z,14.00
2018-05-06T00:15:38.197Z,13.90
2018-05-06T00:18:04.432Z,13.90
2018-05-06T00:20:30.740Z,13.90
2018-05-06T00:22:57.634Z,13.70
2018-05-06T00:25:23.871Z,13.70
2018-05-06T00:27:50.935Z,13.80
2018-05-06T00:30:17.207Z,13.80
2018-05-06T00:32:44.181Z,13.70
2018-05-06T00:35:10.412Z,13.70
2018-05-06T00:37:36.670Z,13.70
2018-05-06T00:40:03.035Z,13.60
2018-05-06T00:42:30.036Z,13.40
2018-05-06T00:44:56.240Z,13.60
2018-05-06T00:47:22.478Z,13.40
2018-05-06T00:49:48.720Z,13.30
2018-05-06T00:52:14.957Z,13.30
2018-05-06T00:54:43.058Z,13.30
2018-05-06T00:57:09.315Z,13.30
2018-05-06T00:59:35.580Z,13.20
2018-05-06T01:02:02.541Z,13.00
2018-05-06T01:04:28.807Z,13.00
2018-05-06T01:06:55.045Z,13.10
2018-05-06T01:09:21.349Z,12.90
2018-05-06T01:11:47.631Z,12.80
2018-05-06T01:14:13.863Z,12.80
2018-05-06T01:16:40.091Z,12.90
2018-05-06T01:19:06.336Z,12.90
2018-05-06T01:21:32.557Z,12.90
2018-05-06T01:23:59.555Z,12.90
2018-05-06T01:26:25.768Z,12.90
2018-05-06T01:28:52.732Z,12.90
2018-05-06T01:31:18.940Z,12.80
2018-05-06T01:33:45.148Z,12.90
2018-05-06T01:36:11.411Z,12.80
2018-05-06T01:38:37.912Z,12.70
2018-05-06T01:41:04.868Z,12.70
2018-05-06T01:43:31.123Z,12.60
2018-05-06T01:45:57.323Z,12.50
2018-05-06T01:48:23.589Z,12.50
2018-05-06T01:50:49.898Z,12.60
2018-05-06T01:53:16.127Z,12.50
2018-05-06T01:55:42.468Z,12.40
2018-05-06T01:58:08.696Z,12.20
2018-05-06T02:00:35.688Z,12.20
2018-05-06T02:03:02.724Z,12.30
2018-05-06T02:05:28.955Z,12.30
2018-05-06T02:07:55.156Z,12.30
2018-05-06T02:10:21.432Z,12.30
2018-05-06T02:12:47.685Z,12.20
2018-05-06T02:15:13.904Z,12.20
2018-05-06T02:17:40.555Z,12.30
2018-05-06T02:20:06.772Z,12.20
2018-05-06T02:22:32.999Z,12.00
2018-05-06T02:24:59.485Z,12.20
2018-05-06T02:27:26.452Z,11.90
2018-05-06T02:29:52.980Z,11.90
2018-05-06T02:32:19.242Z,11.80
2018-05-06T02:34:46.216Z,11.70
2018-05-06T02:37:12.473Z,11.70
2018-05-06T02:39:38.888Z,11.80
2018-05-06T02:42:05.136Z,11.80
2018-05-06T02:44:31.384Z,11.80
2018-05-06T02:46:59.075Z,11.60
2018-05-06T02:49:26.051Z,11.50
2018-05-06T02:51:52.272Z,11.40
2018-05-06T02:54:18.501Z,11.40
2018-05-06T02:56:45.524Z,11.50
2018-05-06T02:59:11.749Z,11.50
2018-05-06T03:01:37.996Z,11.40
2018-05-06T03:04:04.227Z,11.50
2018-05-06T03:06:30.464Z,11.40
2018-05-06T03:08:56.684Z,11.40
2018-05-06T03:11:22.891Z,11.40
2018-05-06T03:13:49.379Z,11.40
2018-05-06T03:16:15.634Z,11.40
2018-05-06T03:18:42.623Z,11.20
2018-05-06T03:21:08.827Z,11.20
2018-05-06T03:23:35.819Z,11.50
2018-05-06T03:26:02.057Z,11.50
2018-05-06T03:28:28.695Z,11.40
2018-05-06T03:30:54.903Z,11.50
2018-05-06T03:33:21.906Z,11.30
2018-05-06T03:35:48.252Z,11.30
2018-05-06T03:38:14.484Z,11.10
2018-05-06T03:40:40.705Z,10.90
2018-05-06T03:43:07.699Z,10.80
2018-05-06T03:45:33.909Z,10.90
2018-05-06T03:48:00.155Z,11.00
2018-05-06T03:50:26.403Z,10.90
2018-05-06T03:52:52.647Z,11.00
2018-05-06T03:55:18.881Z,10.90
2018-05-06T03:57:57.404Z,10.90
2018-05-06T04:00:35.855Z,10.90
2018-05-06T04:03:02.071Z,10.70
2018-05-06T04:05:28.302Z,10.60
2018-05-06T04:07:54.549Z,10.60
2018-05-06T04:10:20.817Z,10.70
2018-05-06T04:12:47.055Z,10.70
2018-05-06T04:15:13.287Z,10.70
2018-05-06T04:17:39.509Z,10.70
2018-05-06T04:20:05.774Z,10.70
2018-05-06T04:22:31.975Z,10.70
2018-05-06T04:24:58.176Z,10.70
2018-05-06T04:27:24.444Z,10.70
2018-05-06T04:29:53.286Z,10.70
2018-05-06T04:32:19.575Z,10.60
2018-05-06T04:34:45.867Z,10.70
2018-05-06T04:37:13.156Z,10.70
2018-05-06T04:39:39.355Z,10.70
2018-05-06T04:42:05.580Z,10.70
2018-05-06T04:44:32.551Z,10.80
2018-05-06T04:46:58.797Z,10.80
2018-05-06T04:49:25.727Z,11.00
2018-05-06T04:51:51.932Z,11.00
2018-05-06T04:54:18.170Z,11.00
2018-05-06T04:56:44.414Z,11.10
2018-05-06T04:59:10.669Z,11.20
2018-05-06T05:01:36.903Z,11.20
2018-05-06T05:04:03.115Z,11.20
2018-05-06T05:06:30.166Z,11.30
2018-05-06T05:08:57.107Z,11.40
2018-05-06T05:11:23.378Z,11.40
2018-05-06T05:13:49.592Z,11.60
2018-05-06T05:16:16.540Z,11.70
2018-05-06T05:18:43.600Z,11.80
2018-05-06T05:21:09.627Z,11.80
2018-05-06T05:23:36.397Z,12.00
2018-05-06T05:26:02.468Z,12.00
2018-05-06T05:28:29.275Z,13.00
2018-05-06T05:30:55.300Z,13.00
2018-05-06T05:33:22.117Z,15.90
2018-05-06T05:35:48.174Z,15.90
2018-05-06T05:38:14.201Z,16.90
2018-05-06T05:40:40.232Z,18.00
2018-05-06T05:43:06.256Z,18.80
2018-05-06T05:45:34.568Z,18.90
2018-05-06T05:48:00.603Z,18.90
2018-05-06T05:50:26.628Z,18.20
2018-05-06T05:52:52.647Z,17.70
2018-05-06T05:55:18.733Z,17.40
2018-05-06T05:57:44.766Z,17.40
2018-05-06T06:00:11.540Z,16.90
2018-05-06T06:02:37.568Z,16.90
2018-05-06T06:05:03.708Z,17.00
2018-05-06T06:07:29.920Z,16.70
2018-05-06T06:09:56.160Z,16.40
2018-05-06T06:12:22.392Z,16.30
2018-05-06T06:14:48.611Z,16.40
2018-05-06T06:17:14.835Z,16.30
2018-05-06T06:19:41.128Z,16.30
2018-05-06T06:22:07.370Z,16.40
2018-05-06T06:24:33.609Z,16.20
2018-05-06T06:26:59.835Z,16.30
2018-05-06T06:29:26.103Z,16.10
2018-05-06T06:31:52.436Z,16.10
2018-05-06T06:34:18.677Z,16.00
2018-05-06T06:36:44.972Z,15.70
2018-05-06T06:39:11.294Z,15.70
2018-05-06T06:41:38.263Z,15.90
2018-05-06T06:44:06.141Z,15.90
2018-05-06T06:46:33.068Z,15.60
2018-05-06T06:49:00.036Z,15.60
2018-05-06T06:51:28.411Z,15.80
2018-05-06T06:53:54.728Z,15.80
2018-05-06T06:56:20.789Z,15.80
2018-05-06T06:58:47.582Z,15.80
2018-05-06T07:01:13.625Z,15.70
2018-05-06T07:03:39.680Z,15.90
2018-05-06T07:06:05.983Z,15.90
2018-05-06T07:08:32.172Z,16.00
2018-05-06T07:10:58.448Z,16.00
2018-05-06T07:13:24.769Z,15.90
2018-05-06T07:15:50.989Z,16.00
2018-05-06T07:18:17.251Z,16.30
2018-05-06T07:20:44.203Z,16.70
2018-05-06T07:23:10.425Z,16.70
2018-05-06T07:25:36.608Z,16.90
2018-05-06T07:28:04.342Z,17.00
2018-05-06T07:30:30.996Z,17.10
2018-05-06T07:32:57.303Z,17.20
2018-05-06T07:35:23.535Z,17.30
2018-05-06T07:37:49.872Z,17.60
2018-05-06T07:40:16.109Z,17.80
2018-05-06T07:42:43.060Z,18.00
2018-05-06T07:45:09.320Z,17.90
2018-05-06T07:47:36.267Z,18.10
2018-05-06T07:50:02.607Z,18.00
2018-05-06T07:52:28.796Z,17.80
2018-05-06T07:54:55.760Z,18.10
2018-05-06T07:57:21.971Z,18.10
2018-05-06T07:59:48.443Z,18.10
2018-05-06T08:02:14.670Z,18.30
2018-05-06T08:04:40.899Z,18.50
2018-05-06T08:07:07.116Z,18.70
2018-05-06T08:09:33.332Z,18.90
2018-05-06T08:11:59.540Z,19.00
2018-05-06T08:14:25.755Z,19.10
2018-05-06T08:16:51.984Z,18.90
2018-05-06T08:19:18.939Z,18.70
2018-05-06T08:21:45.134Z,18.70
2018-05-06T08:24:12.082Z,18.50
2018-05-06T08:26:38.320Z,18.60
2018-05-06T08:29:04.513Z,18.90
2018-05-06T08:31:30.719Z,19.10
2018-05-06T08:33:58.163Z,18.90
2018-05-06T08:36:24.357Z,19.00
2018-05-06T08:38:51.397Z,19.00
2018-05-06T08:41:17.596Z,18.90
2018-05-06T08:43:43.848Z,19.10
2018-05-06T08:46:10.121Z,19.30
2018-05-06T08:48:36.408Z,19.40
2018-05-06T08:51:03.452Z,19.60
2018-05-06T08:53:30.472Z,19.60
2018-05-06T08:55:56.686Z,19.60
2018-05-06T08:58:22.911Z,19.80
2018-05-06T09:00:49.183Z,19.90
2018-05-06T09:03:20.032Z,20.10
2018-05-06T09:05:46.395Z,20.20
2018-05-06T09:08:12.721Z,20.30
2018-05-06T09:10:39.703Z,20.30
2018-05-06T09:13:05.960Z,20.30
2018-05-06T09:15:32.969Z,20.50
2018-05-06T09:17:59.616Z,20.50
2018-05-06T09:20:27.767Z,21.00
2018-05-06T09:22:53.961Z,21.00
2018-05-06T09:25:20.216Z,21.30
2018-05-06T09:27:46.597Z,21.50
2018-05-06T09:30:12.856Z,21.90
2018-05-06T09:32:39.160Z,21.90
2018-05-06T09:35:05.373Z,21.80
2018-05-06T09:37:31.571Z,21.80
2018-05-06T09:39:57.788Z,22.00
2018-05-06T09:42:24.736Z,22.70
2018-05-06T09:44:50.944Z,22.70
2018-05-06T09:47:17.160Z,22.90
2018-05-06T09:49:43.403Z,23.20
2018-05-06T09:52:09.611Z,23.40
2018-05-06T09:54:35.824Z,23.50
2018-05-06T09:57:03.548Z,23.60
2018-05-06T09:59:29.791Z,23.60
2018-05-06T10:01:57.212Z,24.10
2018-05-06T10:04:23.415Z,24.10
2018-05-06T10:06:49.779Z,24.30
2018-05-06T10:09:16.040Z,24.40
2018-05-06T10:11:43.048Z,24.60
2018-05-06T10:14:09.276Z,24.50
2018-05-06T10:16:36.320Z,24.80
2018-05-06T10:19:03.283Z,24.70
2018-05-06T10:21:29.659Z,24.70
2018-05-06T10:23:55.875Z,24.60
2018-05-06T10:26:22.113Z,24.70
2018-05-06T10:28:48.317Z,24.40
2018-05-06T10:31:14.556Z,24.50
2018-05-06T10:33:41.247Z,24.80
2018-05-06T10:36:07.472Z,24.70
2018-05-06T10:38:34.438Z,24.60
2018-05-06T10:41:00.647Z,24.50
2018-05-06T10:43:26.876Z,24.40
2018-05-06T10:45:55.229Z,24.90
2018-05-06T10:48:21.524Z,25.00
2018-05-06T10:50:48.480Z,24.90
2018-05-06T10:53:14.692Z,24.90
2018-05-06T10:55:40.925Z,25.10
2018-05-06T10:58:07.118Z,25.10
2018-05-06T11:00:33.365Z,25.00
2018-05-06T11:02:59.607Z,25.20
2018-05-06T11:05:26.093Z,25.30
2018-05-06T11:07:52.371Z,25.30
2018-05-06T11:10:18.678Z,25.30
2018-05-06T11:12:44.836Z,25.10
2018-05-06T11:15:11.060Z,24.90
2018-05-06T11:17:37.404Z,25.00
2018-05-06T11:20:04.828Z,25.30
2018-05-06T11:22:31.050Z,25.60
2018-05-06T11:24:57.273Z,25.90
2018-05-06T11:27:23.523Z,26.00
2018-05-06T11:29:49.793Z,26.20
2018-05-06T11:32:16.783Z,26.60
2018-05-06T11:34:43.003Z,26.60
2018-05-06T11:37:09.269Z,26.50
2018-05-06T11:39:38.420Z,26.30
2018-05-06T11:42:04.631Z,26.20
2018-05-06T11:44:30.831Z,26.50
2018-05-06T11:46:57.820Z,26.50
2018-05-06T11:49:24.111Z,26.50
2018-05-06T11:51:50.440Z,26.60
2018-05-06T11:54:16.655Z,26.80
2018-05-06T11:56:42.914Z,26.90
2018-05-06T11:59:13.854Z,27.20
2018-05-06T12:01:40.100Z,27.30
2018-05-06T12:04:06.311Z,27.30
2018-05-06T12:06:32.559Z,27.30
2018-05-06T12:08:59.515Z,27.00
2018-05-06T12:11:30.587Z,26.90
2018-05-06T12:13:56.859Z,27.00
2018-05-06T12:16:23.093Z,26.90
2018-05-06T12:18:49.304Z,26.80
2018-05-06T12:21:15.573Z,26.90
2018-05-06T12:23:42.001Z,27.10
2018-05-06T12:26:08.276Z,27.50
2018-05-06T12:28:37.622Z,27.60
2018-05-06T12:31:03.868Z,27.60
2018-05-06T12:33:30.138Z,27.70
2018-05-06T12:35:56.411Z,27.90
2018-05-06T12:38:22.612Z,27.70
2018-05-06T12:40:48.823Z,27.80
2018-05-06T12:43:15.101Z,27.70
2018-05-06T12:45:41.270Z,27.80
2018-05-06T12:48:07.526Z,27.70
2018-05-06T12:50:33.791Z,27.80
2018-05-06T12:53:00.064Z,27.60
2018-05-06T12:55:26.293Z,27.70
2018-05-06T12:57:56.440Z,27.80
2018-05-06T13:00:23.520Z,27.70
2018-05-06T13:02:49.779Z,27.70
2018-05-06T13:05:16.723Z,27.60
2018-05-06T13:07:42.964Z,27.60
2018-05-06T13:10:09.231Z,27.70
2018-05-06T13:12:35.448Z,27.60
2018-05-06T13:15:03.127Z,27.70
2018-05-06T13:17:32.340Z,27.60
2018-05-06T13:19:58.645Z,27.60
2018-05-06T13:22:26.444Z,27.30
2018-05-06T13:24:53.395Z,27.40
2018-05-06T13:27:19.631Z,27.40
2018-05-06T13:29:45.840Z,27.50
2018-05-06T13:32:12.056Z,27.60
2018-05-06T13:34:38.331Z,27.60
2018-05-06T13:37:04.539Z,27.60
2018-05-06T13:39:30.825Z,28.00
2018-05-06T13:41:57.121Z,27.90
2018-05-06T13:44:23.399Z,27.90
2018-05-06T13:46:49.656Z,27.60
2018-05-06T13:49:15.901Z,27.50
2018-05-06T13:51:42.882Z,27.20
2018-05-06T13:54:09.098Z,27.20
2018-05-06T13:56:36.362Z,27.00
2018-05-06T13:59:02.590Z,26.90
2018-05-06T14:01:28.916Z,27.10
2018-05-06T14:03:55.136Z,27.00
2018-05-06T14:06:22.171Z,27.00
2018-05-06T14:08:48.462Z,27.10
2018-05-06T14:11:14.656Z,27.20
2018-05-06T14:13:40.896Z,27.20
2018-05-06T14:16:11.308Z,27.40
2018-05-06T14:18:37.561Z,27.50
2018-05-06T14:21:04.552Z,27.20
2018-05-06T14:23:30.790Z,27.10
2018-05-06T14:25:57.014Z,27.10
2018-05-06T14:28:23.996Z,27.20
2018-05-06T14:30:50.061Z,27.20
2018-05-06T14:33:17.971Z,27.20
2018-05-06T14:35:44.796Z,27.50
2018-05-06T14:38:10.984Z,27.50
2018-05-06T14:40:37.272Z,27.40
2018-05-06T14:43:03.546Z,27.20
2018-05-06T14:45:29.849Z,27.20
2018-05-06T14:48:08.756Z,27.30
2018-05-06T14:50:34.803Z,27.60
2018-05-06T14:53:00.880Z,27.40
2018-05-06T14:55:26.918Z,27.50
2018-05-06T14:57:52.964Z,27.50
2018-05-06T15:00:19.019Z,27.40
2018-05-06T15:02:47.588Z,27.30
2018-05-06T15:05:13.720Z,27.10
2018-05-06T15:07:40.520Z,27.00
2018-05-06T15:10:06.727Z,27.00
2018-05-06T15:12:33.547Z,26.70
2018-05-06T15:14:59.576Z,26.70
2018-05-06T15:17:25.606Z,26.50
2018-05-06T15:19:51.629Z,26.50
2018-05-06T15:22:22.589Z,26.70
2018-05-06T15:24:49.361Z,26.80
2018-05-06T15:27:15.376Z,26.70
2018-05-06T15:29:42.147Z,26.70
2018-05-06T15:32:08.189Z,26.70
2018-05-06T15:34:34.215Z,26.50
2018-05-06T15:37:00.245Z,26.50
2018-05-06T15:39:27.012Z,25.80
2018-05-06T15:41:59.892Z,25.80
2018-05-06T15:44:26.124Z,25.70
2018-05-06T15:46:52.895Z,25.50
2018-05-06T15:49:19.218Z,25.50
2018-05-06T15:51:45.453Z,25.50
2018-05-06T15:54:11.517Z,25.50
2018-05-06T15:56:42.799Z,25.20
2018-05-06T15:59:08.863Z,25.20
2018-05-06T16:01:34.891Z,25.00
2018-05-06T16:04:13.463Z,24.90
2018-05-06T16:06:40.280Z,24.90
2018-05-06T16:09:08.256Z,25.00
2018-05-06T16:11:34.332Z,24.80
2018-05-06T16:14:01.159Z,24.70
2018-05-06T16:16:27.955Z,24.80
2018-05-06T16:18:53.987Z,24.80
2018-05-06T16:21:20.028Z,24.80
2018-05-06T16:23:46.051Z,24.80
2018-05-06T16:26:12.092Z,25.00
2018-05-06T16:28:38.116Z,25.00
2018-05-06T16:31:04.283Z,24.90
2018-05-06T16:33:30.611Z,25.10
2018-05-06T16:35:56.636Z,25.20
2018-05-06T16:38:22.767Z,25.10
2018-05-06T16:40:48.808Z,25.10
2018-05-06T16:43:14.844Z,25.00
2018-05-06T16:45:40.873Z,25.00
2018-05-06T16:48:08.619Z,24.90
2018-05-06T16:50:35.379Z,24.50
2018-05-06T16:53:01.412Z,24.40
2018-05-06T16:55:28.175Z,24.40
2018-05-06T16:57:54.203Z,24.30
2018-05-06T17:00:20.235Z,24.40
2018-05-06T17:02:47.016Z,24.30
2018-05-06T17:05:16.486Z,24.30
2018-05-06T17:07:42.507Z,24.20
2018-05-06T17:10:08.544Z,24.20
2018-05-06T17:12:34.591Z,24.30
2018-05-06T17:15:00.632Z,24.20
2018-05-06T17:17:26.676Z,24.20
2018-05-06T17:19:52.724Z,24.20
2018-05-06T17:22:22.660Z,24.10
2018-05-06T17:24:49.524Z,24.00
2018-05-06T17:27:16.322Z,23.90
2018-05-06T17:29:42.383Z,23.80
2018-05-06T17:32:08.432Z,23.70
2018-05-06T17:34:34.467Z,23.70
2018-05-06T17:37:00.505Z,23.70
2018-05-06T17:39:29.527Z,23.70
2018-05-06T17:41:56.297Z,23.70
2018-05-06T17:44:22.340Z,23.70
2018-05-06T17:46:48.372Z,23.70
2018-05-06T17:49:14.435Z,23.60
2018-05-06T17:51:40.584Z,23.70
2018-05-06T17:54:06.630Z,23.60
2018-05-06T17:56:36.730Z,23.60
2018-05-06T17:59:02.768Z,23.60
2018-05-06T18:01:28.818Z,23.50
2018-05-06T18:03:54.872Z,23.50
2018-05-06T18:06:20.923Z,23.70
2018-05-06T18:08:46.963Z,23.70
2018-05-06T18:11:13.014Z,23.60
2018-05-06T18:13:40.325Z,23.60
2018-05-06T18:16:08.953Z,23.40
2018-05-06T18:18:34.994Z,23.40
2018-05-06T18:21:01.064Z,23.40
2018-05-06T18:23:27.863Z,23.30
2018-05-06T18:25:53.904Z,23.30
2018-05-06T18:28:19.935Z,23.20
2018-05-06T18:30:45.975Z,23.20
2018-05-06T18:33:13.445Z,23.10
2018-05-06T18:35:39.479Z,23.00
2018-05-06T18:38:05.577Z,23.00
2018-05-06T18:40:31.644Z,23.10
2018-05-06T18:42:57.743Z,23.00
2018-05-06T18:45:23.807Z,23.00
2018-05-06T18:47:49.855Z,23.00
2018-05-06T18:50:15.920Z,22.80
2018-05-06T18:52:41.976Z,22.70
2018-05-06T18:55:08.000Z,22.70
2018-05-06T18:57:34.024Z,22.60
2018-05-06T19:00:00.070Z,22.50
2018-05-06T19:02:26.091Z,22.50
2018-05-06T19:04:52.177Z,22.60
2018-05-06T19:07:18.988Z,22.40
2018-05-06T19:09:45.021Z,22.40
2018-05-06T19:12:11.051Z,22.20
2018-05-06T19:14:39.692Z,22.20
2018-05-06T19:17:05.783Z,22.20
2018-05-06T19:19:32.547Z,22.10
2018-05-06T19:21:58.616Z,22.10
2018-05-06T19:24:24.645Z,22.00
2018-05-06T19:26:50.677Z,22.00
2018-05-06T19:29:16.699Z,22.00
2018-05-06T19:31:46.383Z,22.00
2018-05-06T19:34:13.168Z,21.80
2018-05-06T19:36:39.197Z,21.80
2018-05-06T19:39:05.241Z,21.70
2018-05-06T19:41:31.299Z,21.70
2018-05-06T19:43:57.473Z,21.60
2018-05-06T19:46:23.548Z,21.60
2018-05-06T19:48:51.225Z,21.60
2018-05-06T19:51:17.192Z,21.60
2018-05-06T19:53:43.261Z,21.50
2018-05-06T19:56:09.355Z,21.50
2018-05-06T19:58:35.384Z,21.40
2018-05-06T20:01:01.405Z,21.40
2018-05-06T20:03:27.456Z,21.30
2018-05-06T20:05:53.491Z,21.40
2018-05-06T20:08:19.536Z,21.40
2018-05-06T20:10:45.567Z,21.30
2018-05-06T20:13:11.592Z,21.40
2018-05-06T20:15:37.631Z,21.50
2018-05-06T20:18:03.673Z,21.50
2018-05-06T20:20:30.494Z,21.60
2018-05-06T20:22:57.252Z,21.40
2018-05-06T20:25:24.568Z,21.30
2018-05-06T20:27:50.598Z,21.30
2018-05-06T20:30:16.696Z,21.30
2018-05-06T20:32:42.755Z,21.10
2018-05-06T20:35:08.793Z,21.00
2018-05-06T20:37:34.838Z,21.10
2018-05-06T20:40:00.863Z,21.10
2018-05-06T20:42:26.892Z,20.90
2018-05-06T20:44:52.916Z,20.80
2018-05-06T20:47:18.968Z,20.70
2018-05-06T20:49:45.045Z,20.70
2018-05-06T20:52:11.080Z,20.70
2018-05-06T20:54:37.092Z,20.70
2018-05-06T20:57:03.304Z,20.60
2018-05-06T20:59:29.324Z,20.50
2018-05-06T21:01:56.086Z,20.10
2018-05-06T21:04:23.579Z,20.00
2018-05-06T21:06:49.603Z,20.10
2018-05-06T21:09:15.620Z,20.00
2018-05-06T21:11:42.420Z,19.80
2018-05-06T21:14:08.555Z,19.80
2018-05-06T21:16:34.607Z,19.80
2018-05-06T21:19:00.645Z,19.70
2018-05-06T21:21:26.680Z,19.70
2018-05-06T21:23:52.717Z,19.60
2018-05-06T21:26:18.760Z,19.60
2018-05-06T21:28:44.898Z,19.50
2018-05-06T21:31:10.943Z,19.50
2018-05-06T21:33:37.003Z,19.40
2018-05-06T21:36:03.882Z,19.40
2018-05-06T21:38:29.923Z,19.30
2018-05-06T21:40:56.322Z,19.40
2018-05-06T21:43:22.478Z,19.10
2018-05-06T21:45:48.469Z,19.10
2018-05-06T21:48:14.496Z,19.00
2018-05-06T21:50:40.527Z,18.90
2018-05-06T21:53:06.649Z,18.90
2018-05-06T21:55:32.644Z,18.90
2018-05-06T21:57:59.431Z,18.70
2018-05-06T22:00:25.486Z,18.70
2018-05-06T22:02:51.534Z,18.60
2018-05-06T22:05:17.860Z,18.60
2018-05-06T22:07:43.925Z,18.60
2018-05-06T22:10:09.936Z,18.60
2018-05-06T22:12:36.090Z,18.60
2018-05-06T22:15:02.104Z,18.70
2018-05-06T22:17:28.136Z,18.70
2018-05-06T22:19:54.196Z,18.60
2018-05-06T22:22:20.230Z,18.60
2018-05-06T22:24:46.335Z,18.60
2018-05-06T22:27:13.167Z,18.40
2018-05-06T22:29:39.283Z,18.40
2018-05-06T22:32:06.103Z,17.80
2018-05-06T22:34:32.144Z,17.80
2018-05-06T22:36:58.219Z,17.70
2018-05-06T22:39:25.039Z,17.50
2018-05-06T22:41:51.084Z,17.50
2018-05-06T22:44:19.936Z,17.60
2018-05-06T22:46:46.714Z,17.50
2018-05-06T22:49:12.764Z,17.50
2018-05-06T22:51:39.607Z,17.50
2018-05-06T22:54:05.643Z,17.50
2018-05-06T22:56:31.692Z,17.50
2018-05-06T22:58:57.727Z,17.50
2018-05-06T23:01:23.810Z,17.50
2018-05-06T23:03:49.840Z,17.30
2018-05-06T23:06:16.047Z,17.30
2018-05-06T23:08:42.281Z,17.20
2018-05-06T23:11:09.519Z,17.20
2018-05-06T23:13:35.715Z,17.20
2018-05-06T23:16:01.939Z,17.20
2018-05-06T23:18:28.165Z,17.20
2018-05-06T23:20:54.411Z,17.40
2018-05-06T23:23:20.636Z,17.10
2018-05-06T23:25:46.912Z,17.00
2018-05-06T23:28:13.126Z,17.10
2018-05-06T23:30:40.073Z,16.80
2018-05-06T23:33:06.301Z,16.80
2018-05-06T23:35:33.326Z,16.80
2018-05-06T23:38:00.231Z,16.80
2018-05-06T23:40:26.439Z,16.80
2018-05-06T23:42:53.437Z,16.50
2018-05-06T23:45:19.716Z,16.50
2018-05-06T23:47:45.948Z,16.50
2018-05-06T23:50:12.167Z,16.50
2018-05-06T23:52:38.439Z,16.40
2018-05-06T23:55:04.816Z,16.30
2018-05-06T23:57:31.101Z,16.20
